createdAt,value
2022-11-03T00:01:37.804Z,97782.09
2022-11-03T00:04:07.208Z,97780.53
2022-11-03T00:06:36.325Z,97777.91
2022-11-03T00:09:07.513Z,97772.88
2022-11-03T00:11:36.853Z,97776.22
2022-11-03T00:14:06.381Z,97773.56
2022-11-03T00:16:35.139Z,97772.03
2022-11-03T00:19:03.845Z,97765.34
2022-11-03T00:21:32.555Z,97776.47
2022-11-03T00:24:02.544Z,97763.25
2022-11-03T00:26:34.238Z,97760.63
2022-11-03T00:29:03.988Z,97766.88
2022-11-03T00:31:33.836Z,97755.75
2022-11-03T00:34:03.157Z,97758.13
2022-11-03T00:36:33.240Z,97758.38
2022-11-03T00:39:01.988Z,97753.09
2022-11-03T00:41:31.961Z,97753.94
2022-11-03T00:44:00.849Z,97753.94
2022-11-03T00:46:30.446Z,97750.59
2022-11-03T00:48:59.168Z,97746.13
2022-11-03T00:51:30.099Z,97746.97
2022-11-03T00:54:00.201Z,97742.78
2022-11-03T00:56:30.465Z,97743.75
2022-11-03T00:59:01.536Z,97753.34
2022-11-03T01:01:32.322Z,97741.25
2022-11-03T01:04:18.519Z,97736.91
2022-11-03T01:06:51.814Z,97722.72
2022-11-03T01:09:21.545Z,97726.34
2022-11-03T01:11:54.832Z,97726.47
2022-11-03T01:14:25.786Z,97726.47
2022-11-03T01:16:54.472Z,97731.88
2022-11-03T01:19:23.768Z,97726.59
2022-11-03T01:21:52.659Z,97717.00
2022-11-03T01:24:21.556Z,97717.00
2022-11-03T01:26:50.767Z,97710.72
2022-11-03T01:29:19.882Z,97702.09
2022-11-03T01:31:50.435Z,97700.41
2022-11-03T01:34:20.542Z,97697.19
2022-11-03T01:36:49.456Z,97707.78
2022-11-03T01:39:19.082Z,97700.69
2022-11-03T01:41:49.287Z,97698.03
2022-11-03T01:44:36.350Z,97699.00
2022-11-03T01:47:12.246Z,97682.31
2022-11-03T01:49:44.508Z,97680.06
2022-11-03T01:52:16.985Z,97679.22
2022-11-03T01:54:47.786Z,97680.06
2022-11-03T01:57:18.790Z,97679.22
2022-11-03T01:59:48.694Z,97666.97
2022-11-03T02:02:27.149Z,97668.50
2022-11-03T02:04:57.362Z,97669.75
2022-11-03T02:07:29.510Z,97666.13
2022-11-03T02:09:58.093Z,97664.44
2022-11-03T02:12:27.094Z,97662.78
2022-11-03T02:14:57.680Z,97655.81
2022-11-03T02:17:28.978Z,97648.84
2022-11-03T02:19:59.720Z,97655.81
2022-11-03T02:22:41.176Z,97649.81
2022-11-03T02:25:17.045Z,97641.91
2022-11-03T02:27:47.187Z,97643.69
2022-11-03T02:30:15.978Z,97640.22
2022-11-03T02:32:52.562Z,97633.13
2022-11-03T02:35:23.898Z,97630.63
2022-11-03T02:37:55.951Z,97629.91
2022-11-03T02:40:27.900Z,97623.78
2022-11-03T02:42:58.424Z,97620.31
2022-11-03T02:45:27.870Z,97616.69
2022-11-03T02:47:59.788Z,97597.63
2022-11-03T02:50:29.015Z,97604.56
2022-11-03T02:52:58.452Z,97602.91
2022-11-03T02:55:34.761Z,97604.56
2022-11-03T02:58:09.411Z,97603.59
2022-11-03T03:00:44.411Z,97602.19
2022-11-03T03:03:16.518Z,97600.38
2022-11-03T03:05:46.530Z,97599.69
2022-11-03T03:08:15.458Z,97596.22
2022-11-03T03:10:45.795Z,97598.00
2022-11-03T03:13:18.713Z,97601.50
2022-11-03T03:15:48.781Z,97598.00
2022-11-03T03:18:24.696Z,97602.47
2022-11-03T03:20:57.377Z,97593.00
2022-11-03T03:23:28.171Z,97592.03
2022-11-03T03:26:00.284Z,97583.38
2022-11-03T03:28:34.706Z,97588.66
2022-11-03T03:31:06.590Z,97579.06
2022-11-03T03:33:35.746Z,97577.25
2022-11-03T03:36:06.114Z,97575.59
2022-11-03T03:38:38.250Z,97581.84
2022-11-03T03:41:10.864Z,97579.34
2022-11-03T03:43:41.161Z,97574.44
2022-11-03T03:46:11.660Z,97578.88
2022-11-03T03:48:40.596Z,97570.84
2022-11-03T03:51:09.438Z,97574.31
2022-11-03T03:53:37.927Z,97576.25
2022-11-03T03:56:06.957Z,97571.94
2022-11-03T03:58:35.392Z,97568.44
2022-11-03T04:01:05.293Z,97572.06
2022-11-03T04:03:33.768Z,97571.94
2022-11-03T04:06:02.555Z,97575.41
2022-11-03T04:08:31.051Z,97563.31
2022-11-03T04:11:16.875Z,97570.25
2022-11-03T04:14:02.816Z,97567.75
2022-11-03T04:16:50.033Z,97568.59
2022-11-03T04:19:35.859Z,97564.28
2022-11-03T04:22:21.366Z,97559.69
2022-11-03T04:24:51.081Z,97561.75
2022-11-03T04:27:33.191Z,97546.75
2022-11-03T04:30:07.828Z,97544.22
2022-11-03T04:32:38.324Z,97545.06
2022-11-03T04:35:16.295Z,97538.94
2022-11-03T04:37:47.386Z,97539.66
2022-11-03T04:40:17.512Z,97539.66
2022-11-03T04:42:47.471Z,97534.50
2022-11-03T04:45:23.714Z,97530.19
2022-11-03T04:47:54.100Z,97538.13
2022-11-03T04:50:23.902Z,97527.69
2022-11-03T04:52:55.382Z,97526.72
2022-11-03T04:55:24.023Z,97505.84
2022-11-03T04:57:56.790Z,97501.25
2022-11-03T05:00:25.751Z,97496.81
2022-11-03T05:02:56.370Z,97489.03
2022-11-03T05:05:26.323Z,97490.81
2022-11-03T05:07:56.305Z,97496.09
2022-11-03T05:10:27.417Z,97489.84
2022-11-03T05:12:56.629Z,97482.91
2022-11-03T05:15:33.473Z,97482.91
2022-11-03T05:18:09.661Z,97487.47
2022-11-03T05:20:49.599Z,97490.13
2022-11-03T05:23:20.058Z,97482.47
2022-11-03T05:25:50.466Z,97479.81
2022-11-03T05:28:25.284Z,97465.78
2022-11-03T05:30:54.770Z,97464.94
2022-11-03T05:33:28.462Z,97459.66
2022-11-03T05:35:59.564Z,97451.72
2022-11-03T05:38:30.861Z,97441.88
2022-11-03T05:40:59.990Z,97445.66
2022-11-03T05:43:29.499Z,97448.69
2022-11-03T05:46:00.008Z,97451.47
2022-11-03T05:48:33.198Z,97451.59
2022-11-03T05:51:02.583Z,97450.94
2022-11-03T05:53:32.457Z,97447.28
2022-11-03T05:56:03.327Z,97438.53
2022-11-03T05:58:35.067Z,97428.97
2022-11-03T06:01:07.937Z,97436.72
2022-11-03T06:03:37.978Z,97431.59
2022-11-03T06:06:14.864Z,97423.81
2022-11-03T06:08:46.009Z,97425.31
2022-11-03T06:11:28.862Z,97420.88
2022-11-03T06:13:58.854Z,97417.56
2022-11-03T06:16:38.644Z,97420.19
2022-11-03T06:19:19.902Z,97415.75
2022-11-03T06:21:49.173Z,97415.88
2022-11-03T06:24:19.325Z,97416.72
2022-11-03T06:26:48.260Z,97414.91
2022-11-03T06:29:18.423Z,97420.03
2022-11-03T06:31:49.252Z,97400.88
2022-11-03T06:34:40.112Z,97413.13
2022-11-03T06:37:21.491Z,97410.59
2022-11-03T06:39:50.594Z,97406.28
2022-11-03T06:42:23.151Z,97408.81
2022-11-03T06:44:53.689Z,97407.97
2022-11-03T06:47:24.273Z,97408.06
2022-11-03T06:49:55.832Z,97408.06
2022-11-03T06:52:30.301Z,97414.09
2022-11-03T06:55:16.811Z,97405.44
2022-11-03T06:57:47.760Z,97401.00
2022-11-03T07:00:39.907Z,97407.22
2022-11-03T07:03:12.020Z,97403.75
2022-11-03T07:05:42.266Z,97402.91
2022-11-03T07:08:23.655Z,97400.28
2022-11-03T07:10:52.891Z,97402.91
2022-11-03T07:13:25.017Z,97401.25
2022-11-03T07:15:54.278Z,97402.91
2022-11-03T07:18:26.612Z,97404.50
2022-11-03T07:20:57.061Z,97392.22
2022-11-03T07:23:29.543Z,97384.44
2022-11-03T07:26:00.402Z,97393.09
2022-11-03T07:28:33.696Z,97384.19
2022-11-03T07:31:03.174Z,97378.91
2022-11-03T07:33:32.571Z,97378.06
2022-11-03T07:36:19.471Z,97367.50
2022-11-03T07:38:54.864Z,97370.84
2022-11-03T07:41:29.621Z,97366.53
2022-11-03T07:44:02.140Z,97365.56
2022-11-03T07:46:30.645Z,97369.06
2022-11-03T07:49:01.266Z,97357.66
2022-11-03T07:51:32.591Z,97353.03
2022-11-03T07:54:04.969Z,97346.78
2022-11-03T07:56:36.443Z,97343.88
2022-11-03T07:59:14.325Z,97337.75
2022-11-03T08:01:44.356Z,97329.97
2022-11-03T08:04:14.622Z,97329.13
2022-11-03T08:06:44.498Z,97322.72
2022-11-03T08:09:12.994Z,97325.38
2022-11-03T08:11:41.557Z,97316.75
2022-11-03T08:14:10.560Z,97319.13
2022-11-03T08:16:39.376Z,97315.50
2022-11-03T08:19:08.153Z,97311.06
2022-11-03T08:21:36.694Z,97297.00
2022-11-03T08:24:07.129Z,97286.31
2022-11-03T08:26:35.666Z,97274.91
2022-11-03T08:29:04.218Z,97270.47
2022-11-03T08:31:32.759Z,97269.50
2022-11-03T08:34:01.187Z,97277.41
2022-11-03T08:36:29.790Z,97279.09
2022-11-03T08:38:58.335Z,97281.59
2022-11-03T08:41:28.211Z,97275.47
2022-11-03T08:43:56.675Z,97269.22
2022-11-03T08:46:25.133Z,97265.59
2022-11-03T08:48:53.683Z,97269.91
2022-11-03T08:51:22.149Z,97267.25
2022-11-03T08:53:53.846Z,97263.78
2022-11-03T08:56:23.103Z,97265.47
2022-11-03T08:58:53.572Z,97259.34
2022-11-03T09:01:22.830Z,97249.59
2022-11-03T09:03:52.014Z,97256.56
2022-11-03T09:06:20.979Z,97249.59
2022-11-03T09:11:38.900Z,97233.47
2022-11-03T09:14:09.346Z,97236.13
2022-11-03T09:16:38.797Z,97227.34
2022-11-03T09:19:07.618Z,97226.25
2022-11-03T09:21:36.865Z,97219.28
2022-11-03T09:24:07.475Z,97220.97
2022-11-03T09:26:36.505Z,97222.63
2022-11-03T09:29:05.364Z,97222.63
2022-11-03T09:31:35.681Z,97221.50
2022-11-03T09:34:04.771Z,97222.34
2022-11-03T09:36:33.639Z,97217.06
2022-11-03T09:39:02.869Z,97209.28
2022-11-03T09:41:53.960Z,97204.53
2022-11-03T09:44:21.722Z,97207.19
2022-11-03T09:46:56.937Z,97207.34
2022-11-03T09:49:28.179Z,97199.25
2022-11-03T09:51:57.107Z,97207.19
2022-11-03T09:54:27.754Z,97199.25
2022-11-03T09:56:59.098Z,97200.94
2022-11-03T09:59:28.290Z,97192.03
2022-11-03T10:01:58.753Z,97189.25
2022-11-03T10:04:29.121Z,97179.50
2022-11-03T10:06:58.380Z,97184.78
2022-11-03T10:09:28.715Z,97174.22
2022-11-03T10:11:57.747Z,97175.06
2022-11-03T10:14:26.546Z,97178.38
2022-11-03T10:17:00.550Z,97178.38
2022-11-03T10:19:29.981Z,97172.28
2022-11-03T10:21:59.519Z,97164.34
2022-11-03T10:24:28.607Z,97159.06
2022-11-03T10:26:57.801Z,97156.13
2022-11-03T10:29:27.683Z,97150.16
2022-11-03T10:31:59.245Z,97149.03
2022-11-03T10:34:35.158Z,97155.31
2022-11-03T10:37:21.002Z,97152.50
2022-11-03T10:39:51.742Z,97144.72
2022-11-03T10:42:22.581Z,97139.44
2022-11-03T10:44:53.577Z,97147.38
2022-11-03T10:47:26.850Z,97142.78
2022-11-03T10:49:56.380Z,97143.59
2022-11-03T10:52:27.150Z,97126.09
2022-11-03T10:54:58.032Z,97122.47
2022-11-03T10:57:28.640Z,97136.66
2022-11-03T10:59:59.249Z,97131.09
2022-11-03T11:02:32.394Z,97130.25
2022-11-03T11:05:02.794Z,97124.13
2022-11-03T11:07:35.320Z,97121.34
2022-11-03T11:10:09.692Z,97108.97
2022-11-03T11:12:38.429Z,97110.78
2022-11-03T11:15:36.690Z,97096.72
2022-11-03T11:18:06.588Z,97111.47
2022-11-03T11:20:41.389Z,97106.03
2022-11-03T11:23:49.967Z,97099.91
2022-11-03T11:26:42.545Z,97101.72
2022-11-03T11:29:44.618Z,97097.97
2022-11-03T11:32:53.078Z,97101.56
2022-11-03T11:36:04.389Z,97090.31
2022-11-03T11:39:09.185Z,97084.88
2022-11-03T11:42:09.885Z,97075.28
2022-11-03T11:45:02.865Z,97070.69
2022-11-03T11:47:36.744Z,97076.81
2022-11-03T11:50:31.969Z,97075.84
2022-11-03T11:53:11.214Z,97066.94
2022-11-03T11:55:46.983Z,97070.41
2022-11-03T11:58:19.703Z,97060.66
2022-11-03T12:00:56.207Z,97057.03
2022-11-03T12:03:28.826Z,97055.22
2022-11-03T12:05:57.290Z,97056.06
2022-11-03T12:08:29.721Z,97056.06
2022-11-03T12:11:01.726Z,97062.88
2022-11-03T12:13:48.666Z,97052.59
2022-11-03T12:16:31.280Z,97045.34
2022-11-03T12:19:37.266Z,97029.47
2022-11-03T12:22:06.631Z,97033.66
2022-11-03T12:24:40.928Z,97031.84
2022-11-03T12:27:44.172Z,97024.75
2022-11-03T12:30:18.726Z,97034.63
2022-11-03T12:32:47.836Z,97026.56
2022-11-03T12:35:17.036Z,97019.59
2022-11-03T12:37:46.195Z,97009.16
2022-11-03T12:40:15.084Z,97014.31
2022-11-03T12:42:44.915Z,96996.78
2022-11-03T12:45:14.625Z,96995.81
2022-11-03T12:47:43.091Z,96987.72
2022-11-03T12:50:11.565Z,96975.50
2022-11-03T12:52:40.049Z,96979.78
2022-11-03T12:55:09.243Z,96977.16
2022-11-03T12:57:37.743Z,96975.34
2022-11-03T13:00:09.303Z,96977.00
2022-11-03T13:02:37.992Z,96966.44
2022-11-03T13:05:07.800Z,96969.91
2022-11-03T13:07:36.264Z,96971.56
2022-11-03T13:10:05.294Z,96969.75
2022-11-03T13:12:32.870Z,96960.16
2022-11-03T13:15:02.889Z,96955.56
2022-11-03T13:17:51.973Z,96944.31
2022-11-03T13:20:22.365Z,96938.03
2022-11-03T13:22:51.246Z,96932.75
2022-11-03T13:25:19.878Z,96922.19
2022-11-03T13:27:53.787Z,96924.81
2022-11-03T13:30:22.510Z,96913.25
2022-11-03T13:32:53.021Z,96907.00
2022-11-03T13:35:21.905Z,96891.13
2022-11-03T13:37:50.371Z,96881.38
2022-11-03T13:40:43.025Z,96870.97
2022-11-03T13:43:07.834Z,96884.03
2022-11-03T13:45:36.547Z,96887.50
2022-11-03T13:50:56.664Z,96885.69
2022-11-03T13:56:20.717Z,96878.59
2022-11-03T14:01:39.216Z,96869.69
2022-11-03T14:06:59.128Z,96859.09
2022-11-03T14:09:27.696Z,96863.56
2022-11-03T14:12:13.872Z,96857.28
2022-11-03T14:14:42.387Z,96866.88
2022-11-03T14:17:11.134Z,96850.19
2022-11-03T14:19:45.941Z,96851.84
2022-11-03T14:22:17.325Z,96856.31
2022-11-03T14:24:45.849Z,96850.03
2022-11-03T14:27:15.784Z,96832.53
2022-11-03T14:29:44.531Z,96841.28
2022-11-03T14:32:13.370Z,96831.53
2022-11-03T14:34:43.705Z,96818.31
2022-11-03T14:37:13.297Z,96818.31
2022-11-03T14:39:41.971Z,96816.66
2022-11-03T14:42:15.184Z,96815.66
2022-11-03T14:44:45.282Z,96820.13
2022-11-03T14:47:15.599Z,96815.66
2022-11-03T14:49:46.106Z,96804.41
2022-11-03T14:52:15.753Z,96793.53
2022-11-03T14:54:44.643Z,96790.91
2022-11-03T14:57:13.148Z,96776.00
2022-11-03T14:59:41.821Z,96764.59
2022-11-03T15:02:11.055Z,96772.38
2022-11-03T15:04:39.645Z,96775.19
2022-11-03T15:07:09.406Z,96768.09
2022-11-03T15:09:37.938Z,96768.25
2022-11-03T15:12:06.594Z,96768.09
2022-11-03T15:14:35.035Z,96757.50
2022-11-03T15:17:03.548Z,96757.50
2022-11-03T15:19:32.068Z,96745.28
2022-11-03T15:22:00.482Z,96734.69
2022-11-03T15:27:18.612Z,96710.06
2022-11-03T15:29:47.217Z,96704.94
2022-11-03T15:32:15.698Z,96705.63
2022-11-03T15:34:44.107Z,96699.50
2022-11-03T15:37:12.619Z,96686.28
2022-11-03T15:39:42.676Z,96681.81
2022-11-03T15:42:11.325Z,96676.53
2022-11-03T15:44:40.147Z,96673.06
2022-11-03T15:47:08.663Z,96672.06
2022-11-03T15:49:37.458Z,96674.72
2022-11-03T15:52:06.512Z,96669.44
2022-11-03T15:54:39.780Z,96677.38
2022-11-03T15:59:45.541Z,96659.84
2022-11-03T16:02:39.596Z,96653.72
2022-11-03T16:05:02.871Z,96650.09
2022-11-03T16:07:32.207Z,96645.63
2022-11-03T16:10:00.751Z,96643.97
2022-11-03T16:12:30.559Z,96628.13
2022-11-03T16:14:59.186Z,96628.13
2022-11-03T16:17:27.936Z,96615.91
2022-11-03T16:19:56.660Z,96616.88
2022-11-03T16:22:25.433Z,96621.19
2022-11-03T16:24:54.095Z,96613.91
2022-11-03T16:27:22.803Z,96607.97
2022-11-03T16:29:57.942Z,96588.47
2022-11-03T16:32:26.719Z,96582.34
2022-11-03T16:34:55.295Z,96578.88
2022-11-03T16:37:27.518Z,96581.53
2022-11-03T16:39:56.022Z,96560.38
2022-11-03T16:42:24.539Z,96559.56
2022-11-03T16:44:55.495Z,96564.69
2022-11-03T16:47:26.941Z,96557.72
2022-11-03T16:49:55.488Z,96545.50
2022-11-03T16:52:24.015Z,96545.50
2022-11-03T16:54:52.646Z,96541.88
2022-11-03T16:57:21.160Z,96526.84
2022-11-03T16:59:49.890Z,96516.44
2022-11-03T17:02:19.768Z,96518.25
2022-11-03T17:04:48.276Z,96512.94
2022-11-03T17:07:16.735Z,96502.22
2022-11-03T17:09:45.324Z,96505.03
2022-11-03T17:12:13.838Z,96508.50
2022-11-03T17:14:42.493Z,96497.09
2022-11-03T17:17:11.045Z,96499.56
2022-11-03T17:19:41.556Z,96480.41
2022-11-03T17:22:10.723Z,96475.13
2022-11-03T17:24:39.279Z,96474.13
2022-11-03T17:27:13.220Z,96471.50
2022-11-03T17:29:43.321Z,96481.22
2022-11-03T17:32:15.185Z,96480.09
2022-11-03T17:34:45.025Z,96479.25
2022-11-03T17:37:13.504Z,96479.25
2022-11-03T17:39:42.025Z,96466.19
2022-11-03T17:42:16.829Z,96459.09
2022-11-03T17:44:47.271Z,96450.34
2022-11-03T17:47:16.067Z,96451.00
2022-11-03T17:49:46.967Z,96449.69
2022-11-03T17:52:19.112Z,96448.38
2022-11-03T17:54:50.768Z,96436.13
2022-11-03T17:57:20.933Z,96432.50
2022-11-03T17:59:51.197Z,96416.63
2022-11-03T18:02:21.599Z,96420.59
2022-11-03T18:04:52.201Z,96416.47
2022-11-03T18:07:24.348Z,96409.88
2022-11-03T18:09:53.366Z,96412.53
2022-11-03T18:12:42.337Z,96393.84
2022-11-03T18:15:15.766Z,96385.09
2022-11-03T18:17:44.351Z,96380.78
2022-11-03T18:20:18.104Z,96371.22
2022-11-03T18:22:46.986Z,96365.09
2022-11-03T18:25:16.188Z,96357.16
2022-11-03T18:27:44.721Z,96358.00
2022-11-03T18:30:16.657Z,96364.44
2022-11-03T18:32:46.346Z,96368.72
2022-11-03T18:35:18.974Z,96365.09
2022-11-03T18:37:47.588Z,96365.09
2022-11-03T18:40:16.632Z,96351.22
2022-11-03T18:42:45.174Z,96353.84
2022-11-03T18:45:15.966Z,96351.22
2022-11-03T18:47:44.666Z,96350.38
2022-11-03T18:50:17.743Z,96359.81
2022-11-03T18:52:48.584Z,96348.56
2022-11-03T18:55:17.595Z,96351.22
2022-11-03T18:57:46.296Z,96352.22
2022-11-03T19:00:18.998Z,96344.28
2022-11-03T19:02:51.436Z,96345.09
2022-11-03T19:05:21.357Z,96335.53
2022-11-03T19:07:51.234Z,96329.41
2022-11-03T19:10:22.159Z,96321.47
2022-11-03T19:12:50.667Z,96315.03
2022-11-03T19:15:21.680Z,96301.97
2022-11-03T19:17:50.905Z,96297.69
2022-11-03T19:20:20.727Z,96288.75
2022-11-03T19:22:49.090Z,96280.84
2022-11-03T19:25:18.698Z,96282.81
2022-11-03T19:27:48.276Z,96277.53
2022-11-03T19:30:19.356Z,96273.06
2022-11-03T19:32:49.895Z,96269.44
2022-11-03T19:35:21.842Z,96265.97
2022-11-03T19:37:55.322Z,96259.69
2022-11-03T19:40:23.810Z,96245.81
2022-11-03T19:42:51.373Z,96247.41
2022-11-03T19:45:22.969Z,96234.84
2022-11-03T19:48:22.565Z,96218.72
2022-11-03T19:50:45.067Z,96207.63
2022-11-03T19:53:20.506Z,96198.06
2022-11-03T19:55:49.225Z,96200.53
2022-11-03T19:58:20.788Z,96204.00
2022-11-03T20:00:50.460Z,96198.88
2022-11-03T20:03:22.050Z,96207.81
2022-11-03T20:05:54.599Z,96206.16
2022-11-03T20:08:24.646Z,96199.06
2022-11-03T20:10:53.483Z,96186.66
2022-11-03T20:13:23.707Z,96185.00
2022-11-03T20:15:58.912Z,96187.66
2022-11-03T20:18:29.572Z,96180.72
2022-11-03T20:20:59.589Z,96184.19
2022-11-03T20:23:29.872Z,96201.88
2022-11-03T20:25:58.500Z,96202.84
2022-11-03T20:28:28.641Z,96203.69
2022-11-03T20:30:57.966Z,96190.47
2022-11-03T20:33:26.658Z,96175.44
2022-11-03T20:35:55.419Z,96167.66
2022-11-03T20:38:26.324Z,96147.34
2022-11-03T20:40:58.619Z,96147.53
2022-11-03T20:43:31.499Z,96147.34
2022-11-03T20:46:00.366Z,96145.69
2022-11-03T20:48:29.932Z,96156.28
2022-11-03T20:50:58.460Z,96138.59
2022-11-03T20:53:28.351Z,96146.34
2022-11-03T20:55:56.818Z,96146.53
2022-11-03T20:58:25.277Z,96136.78
2022-11-03T21:00:54.833Z,96112.16
2022-11-03T21:03:44.960Z,96108.69
2022-11-03T21:06:16.548Z,96106.88
2022-11-03T21:08:47.457Z,96097.31
2022-11-03T21:11:27.610Z,96092.84
2022-11-03T21:13:58.361Z,96085.72
2022-11-03T21:16:45.560Z,96081.44
2022-11-03T21:19:34.218Z,96083.09
2022-11-03T21:22:02.958Z,96077.81
2022-11-03T21:24:32.757Z,96072.53
2022-11-03T21:27:01.179Z,96087.56
2022-11-03T21:32:18.648Z,96084.91
2022-11-03T21:34:47.036Z,96085.91
2022-11-03T21:37:16.068Z,96095.47
2022-11-03T21:39:45.852Z,96099.13
2022-11-03T21:42:33.054Z,96092.03
2022-11-03T21:45:01.745Z,96095.81
2022-11-03T21:47:30.222Z,96092.84
2022-11-03T21:49:57.806Z,96083.25
2022-11-03T21:52:32.546Z,96080.63
2022-11-03T21:55:03.412Z,96088.38
2022-11-03T21:57:32.591Z,96101.75
2022-11-03T22:00:01.028Z,96084.09
2022-11-03T22:02:30.391Z,96072.88
2022-11-03T22:04:59.029Z,96073.69
2022-11-03T22:07:27.523Z,96061.47
2022-11-03T22:09:55.943Z,96068.41
2022-11-03T22:12:26.351Z,96072.88
2022-11-03T22:15:23.620Z,96073.69
2022-11-03T22:17:52.094Z,96083.44
2022-11-03T22:20:38.111Z,96089.72
2022-11-03T22:23:23.926Z,96068.56
2022-11-03T22:26:11.328Z,96067.75
2022-11-03T22:28:41.095Z,96066.09
2022-11-03T22:31:27.670Z,96066.75
2022-11-03T22:34:14.040Z,96075.50
2022-11-03T22:36:42.508Z,96057.00
2022-11-03T22:39:31.258Z,96049.25
2022-11-03T22:42:22.808Z,96097.63
2022-11-03T22:45:10.396Z,96109.03
2022-11-03T22:47:38.925Z,96089.72
2022-11-03T22:50:07.848Z,96086.59
2022-11-03T22:52:36.303Z,96084.44
2022-11-03T22:55:04.898Z,96083.59
2022-11-03T22:57:33.273Z,96092.34
2022-11-03T23:00:05.610Z,96096.81
2022-11-03T23:02:34.098Z,96102.09
2022-11-03T23:05:03.081Z,96120.59
2022-11-03T23:07:35.828Z,96123.25
2022-11-03T23:10:08.187Z,96125.06
2022-11-03T23:12:36.783Z,96126.88
2022-11-03T23:15:25.746Z,96129.53
2022-11-03T23:18:11.741Z,96125.22
2022-11-03T23:21:12.163Z,96128.03
2022-11-03T23:23:58.577Z,96148.19
2022-11-03T23:26:27.773Z,96161.41
2022-11-03T23:28:56.192Z,96185.69
2022-11-03T23:31:26.146Z,96198.09
2022-11-03T23:33:55.059Z,96197.25
2022-11-03T23:36:23.481Z,96200.91
2022-11-03T23:38:52.063Z,96186.84
2022-11-03T23:41:20.953Z,96193.78
2022-11-03T23:43:49.480Z,96185.03
2022-11-03T23:46:37.068Z,96206.19
2022-11-03T23:49:07.380Z,96200.91
2022-11-03T23:51:36.943Z,96201.88
2022-11-03T23:54:07.642Z,96204.53
2022-11-03T23:56:55.264Z,96208.00
2022-11-03T23:59:24.305Z,96198.25
